sensor_id;sensor_type;location;lat;lon;timestamp;P1;durP1;ratioP1;P2;durP2;ratioP2
4290;SDS011;2159;50.906;7.152;2023-02-13T00:00:23;12.50;;;8.07;;
4290;SDS011;2159;50.906;7.152;2023-02-13T00:02:52;13.10;;;8.10;;
4290;SDS011;2159;50.906;7.152;2023-02-13T00:05:20;13.33;;;7.90;;
4290;SDS011;2159;50.906;7.152;2023-02-13T00:07:47;13.60;;;8.30;;
4290;SDS011;2159;50.906;7.152;2023-02-13T00:10:16;15.17;;;8.57;;
4290;SDS011;2159;50.906;7.152;2023-02-13T00:12:44;13.17;;;8.07;;
4290;SDS011;2159;50.906;7.152;2023-02-13T00:15:11;12.50;;;7.97;;
4290;SDS011;2159;50.906;7.152;2023-02-13T00:17:39;11.33;;;7.80;;
4290;SDS011;2159;50.906;7.152;2023-02-13T00:20:09;12.60;;;7.90;;
4290;SDS011;2159;50.906;7.152;2023-02-13T00:22:37;13.30;;;8.60;;
4290;SDS011;2159;50.906;7.152;2023-02-13T00:25:05;13.97;;;8.60;;
4290;SDS011;2159;50.906;7.152;2023-02-13T00:27:33;13.27;;;8.40;;
4290;SDS011;2159;50.906;7.152;2023-02-13T00:30:00;13.83;;;8.47;;
4290;SDS011;2159;50.906;7.152;2023-02-13T00:32:28;13.00;;;8.00;;
4290;SDS011;2159;50.906;7.152;2023-02-13T00:34:56;12.67;;;8.23;;
4290;SDS011;2159;50.906;7.152;2023-02-13T00:37:25;11.60;;;7.43;;
4290;SDS011;2159;50.906;7.152;2023-02-13T00:39:53;14.87;;;8.40;;
4290;SDS011;2159;50.906;7.152;2023-02-13T00:42:21;12.50;;;8.17;;
4290;SDS011;2159;50.906;7.152;2023-02-13T00:44:51;12.77;;;8.40;;
4290;SDS011;2159;50.906;7.152;2023-02-13T00:47:19;13.93;;;8.23;;
4290;SDS011;2159;50.906;7.152;2023-02-13T00:49:47;14.93;;;8.40;;
4290;SDS011;2159;50.906;7.152;2023-02-13T00:52:14;13.70;;;8.20;;
4290;SDS011;2159;50.906;7.152;2023-02-13T00:54:43;11.90;;;7.97;;
4290;SDS011;2159;50.906;7.152;2023-02-13T00:57:12;12.43;;;7.43;;
4290;SDS011;2159;50.906;7.152;2023-02-13T00:59:39;12.93;;;8.13;;
4290;SDS011;2159;50.906;7.152;2023-02-13T01:02:07;12.20;;;7.50;;
4290;SDS011;2159;50.906;7.152;2023-02-13T01:04:34;12.80;;;8.23;;
4290;SDS011;2159;50.906;7.152;2023-02-13T01:07:02;12.30;;;7.80;;
4290;SDS011;2159;50.906;7.152;2023-02-13T01:09:29;12.37;;;7.57;;
4290;SDS011;2159;50.906;7.152;2023-02-13T01:11:58;11.80;;;7.63;;
4290;SDS011;2159;50.906;7.152;2023-02-13T01:14:26;12.60;;;7.80;;
4290;SDS011;2159;50.906;7.152;2023-02-13T01:16:53;10.67;;;7.20;;
4290;SDS011;2159;50.906;7.152;2023-02-13T01:19:21;11.10;;;7.30;;
4290;SDS011;2159;50.906;7.152;2023-02-13T01:21:48;11.23;;;7.37;;
4290;SDS011;2159;50.906;7.152;2023-02-13T01:24:15;10.33;;;6.90;;
4290;SDS011;2159;50.906;7.152;2023-02-13T01:26:43;11.03;;;7.40;;
4290;SDS011;2159;50.906;7.152;2023-02-13T01:29:12;9.50;;;6.93;;
4290;SDS011;2159;50.906;7.152;2023-02-13T01:31:40;11.03;;;7.57;;
4290;SDS011;2159;50.906;7.152;2023-02-13T01:34:07;10.70;;;6.67;;
4290;SDS011;2159;50.906;7.152;2023-02-13T01:36:35;10.93;;;7.53;;
4290;SDS011;2159;50.906;7.152;2023-02-13T01:39:02;11.70;;;7.10;;
4290;SDS011;2159;50.906;7.152;2023-02-13T01:41:30;11.40;;;7.27;;
4290;SDS011;2159;50.906;7.152;2023-02-13T01:43:58;11.40;;;7.60;;
4290;SDS011;2159;50.906;7.152;2023-02-13T01:46:28;10.30;;;6.87;;
4290;SDS011;2159;50.906;7.152;2023-02-13T01:48:59;8.80;;;6.60;;
4290;SDS011;2159;50.906;7.152;2023-02-13T01:51:28;9.27;;;6.67;;
4290;SDS011;2159;50.906;7.152;2023-02-13T01:53:57;10.50;;;7.20;;
4290;SDS011;2159;50.906;7.152;2023-02-13T01:56:27;10.10;;;7.10;;
4290;SDS011;2159;50.906;7.152;2023-02-13T01:58:56;9.53;;;7.10;;
4290;SDS011;2159;50.906;7.152;2023-02-13T02:01:24;9.77;;;7.43;;
4290;SDS011;2159;50.906;7.152;2023-02-13T02:03:55;10.30;;;7.00;;
4290;SDS011;2159;50.906;7.152;2023-02-13T02:06:25;11.10;;;6.90;;
4290;SDS011;2159;50.906;7.152;2023-02-13T02:08:53;10.40;;;7.00;;
4290;SDS011;2159;50.906;7.152;2023-02-13T02:11:24;9.20;;;6.70;;
4290;SDS011;2159;50.906;7.152;2023-02-13T02:13:53;10.70;;;7.53;;
4290;SDS011;2159;50.906;7.152;2023-02-13T02:16:20;9.93;;;7.20;;
4290;SDS011;2159;50.906;7.152;2023-02-13T02:18:48;10.87;;;7.77;;
4290;SDS011;2159;50.906;7.152;2023-02-13T02:27:04;10.60;;;7.27;;
4290;SDS011;2159;50.906;7.152;2023-02-13T02:29:53;11.90;;;7.50;;
4290;SDS011;2159;50.906;7.152;2023-02-13T02:32:27;11.37;;;7.70;;
4290;SDS011;2159;50.906;7.152;2023-02-13T02:35:00;12.93;;;7.13;;
4290;SDS011;2159;50.906;7.152;2023-02-13T02:37:38;11.33;;;7.30;;
4290;SDS011;2159;50.906;7.152;2023-02-13T02:40:13;9.60;;;7.10;;
4290;SDS011;2159;50.906;7.152;2023-02-13T02:42:46;9.50;;;6.80;;
4290;SDS011;2159;50.906;7.152;2023-02-13T02:45:17;10.03;;;7.13;;
4290;SDS011;2159;50.906;7.152;2023-02-13T02:47:49;10.13;;;7.40;;
4290;SDS011;2159;50.906;7.152;2023-02-13T02:50:36;11.13;;;7.70;;
4290;SDS011;2159;50.906;7.152;2023-02-13T02:53:07;10.17;;;7.03;;
4290;SDS011;2159;50.906;7.152;2023-02-13T02:55:40;10.60;;;7.73;;
4290;SDS011;2159;50.906;7.152;2023-02-13T02:58:10;9.70;;;7.50;;
4290;SDS011;2159;50.906;7.152;2023-02-13T03:00:56;11.13;;;7.53;;
4290;SDS011;2159;50.906;7.152;2023-02-13T03:03:46;9.30;;;7.07;;
4290;SDS011;2159;50.906;7.152;2023-02-13T03:06:33;8.73;;;6.60;;
4290;SDS011;2159;50.906;7.152;2023-02-13T03:09:03;11.40;;;7.40;;
4290;SDS011;2159;50.906;7.152;2023-02-13T03:11:50;10.63;;;7.73;;
4290;SDS011;2159;50.906;7.152;2023-02-13T03:14:37;10.17;;;6.97;;
4290;SDS011;2159;50.906;7.152;2023-02-13T03:17:05;12.30;;;7.93;;
4290;SDS011;2159;50.906;7.152;2023-02-13T03:19:56;9.60;;;7.10;;
4290;SDS011;2159;50.906;7.152;2023-02-13T03:22:44;10.53;;;7.40;;
4290;SDS011;2159;50.906;7.152;2023-02-13T03:25:15;10.53;;;7.53;;
4290;SDS011;2159;50.906;7.152;2023-02-13T03:27:45;11.37;;;7.97;;
4290;SDS011;2159;50.906;7.152;2023-02-13T03:30:35;8.40;;;6.93;;
4290;SDS011;2159;50.906;7.152;2023-02-13T03:33:09;11.73;;;7.97;;
4290;SDS011;2159;50.906;7.152;2023-02-13T03:35:41;10.80;;;7.70;;
4290;SDS011;2159;50.906;7.152;2023-02-13T03:38:31;10.50;;;6.83;;
4290;SDS011;2159;50.906;7.152;2023-02-13T03:41:03;10.00;;;7.23;;
4290;SDS011;2159;50.906;7.152;2023-02-13T03:43:57;10.90;;;7.57;;
4290;SDS011;2159;50.906;7.152;2023-02-13T03:46:27;11.30;;;7.60;;
4290;SDS011;2159;50.906;7.152;2023-02-13T03:48:56;14.57;;;7.80;;
4290;SDS011;2159;50.906;7.152;2023-02-13T03:51:53;9.70;;;6.90;;
4290;SDS011;2159;50.906;7.152;2023-02-13T03:54:22;12.40;;;8.33;;
4290;SDS011;2159;50.906;7.152;2023-02-13T03:57:09;10.70;;;7.57;;
4290;SDS011;2159;50.906;7.152;2023-02-13T03:59:56;10.10;;;7.73;;
4290;SDS011;2159;50.906;7.152;2023-02-13T04:02:25;10.83;;;7.63;;
4290;SDS011;2159;50.906;7.152;2023-02-13T04:04:58;10.93;;;8.17;;
4290;SDS011;2159;50.906;7.152;2023-02-13T04:07:27;13.80;;;8.40;;
4290;SDS011;2159;50.906;7.152;2023-02-13T04:09:59;10.80;;;7.87;;
4290;SDS011;2159;50.906;7.152;2023-02-13T04:12:30;11.73;;;8.23;;
4290;SDS011;2159;50.906;7.152;2023-02-13T04:15:02;12.77;;;8.60;;
4290;SDS011;2159;50.906;7.152;2023-02-13T04:17:31;11.67;;;8.53;;
4290;SDS011;2159;50.906;7.152;2023-02-13T04:19:59;11.67;;;8.43;;
4290;SDS011;2159;50.906;7.152;2023-02-13T04:22:28;12.13;;;8.50;;
4290;SDS011;2159;50.906;7.152;2023-02-13T04:24:55;12.43;;;8.23;;
4290;SDS011;2159;50.906;7.152;2023-02-13T04:27:23;12.27;;;8.90;;
4290;SDS011;2159;50.906;7.152;2023-02-13T04:29:51;12.70;;;8.60;;
4290;SDS011;2159;50.906;7.152;2023-02-13T04:32:19;12.60;;;8.00;;
4290;SDS011;2159;50.906;7.152;2023-02-13T04:34:46;12.80;;;8.40;;
4290;SDS011;2159;50.906;7.152;2023-02-13T04:37:13;10.30;;;7.63;;
4290;SDS011;2159;50.906;7.152;2023-02-13T04:39:42;10.53;;;7.43;;
4290;SDS011;2159;50.906;7.152;2023-02-13T04:42:10;11.90;;;8.10;;
4290;SDS011;2159;50.906;7.152;2023-02-13T04:44:37;11.87;;;8.33;;
4290;SDS011;2159;50.906;7.152;2023-02-13T04:47:05;10.37;;;7.80;;
4290;SDS011;2159;50.906;7.152;2023-02-13T04:49:32;10.37;;;7.80;;
4290;SDS011;2159;50.906;7.152;2023-02-13T04:52:00;11.20;;;7.90;;
4290;SDS011;2159;50.906;7.152;2023-02-13T04:54:27;14.80;;;8.27;;
4290;SDS011;2159;50.906;7.152;2023-02-13T04:56:56;11.20;;;7.80;;
4290;SDS011;2159;50.906;7.152;2023-02-13T04:59:23;11.80;;;8.20;;
4290;SDS011;2159;50.906;7.152;2023-02-13T05:01:51;11.73;;;8.43;;
4290;SDS011;2159;50.906;7.152;2023-02-13T05:04:19;11.27;;;7.90;;
4290;SDS011;2159;50.906;7.152;2023-02-13T05:06:46;12.17;;;8.40;;
4290;SDS011;2159;50.906;7.152;2023-02-13T05:09:14;12.00;;;8.23;;
4290;SDS011;2159;50.906;7.152;2023-02-13T05:11:44;11.60;;;7.80;;
4290;SDS011;2159;50.906;7.152;2023-02-13T05:14:13;10.50;;;8.10;;
4290;SDS011;2159;50.906;7.152;2023-02-13T05:16:41;11.80;;;8.40;;
4290;SDS011;2159;50.906;7.152;2023-02-13T05:19:08;10.90;;;7.97;;
4290;SDS011;2159;50.906;7.152;2023-02-13T05:21:36;10.67;;;7.90;;
4290;SDS011;2159;50.906;7.152;2023-02-13T05:24:21;11.00;;;7.80;;
4290;SDS011;2159;50.906;7.152;2023-02-13T05:26:48;10.67;;;8.00;;
4290;SDS011;2159;50.906;7.152;2023-02-13T05:29:17;13.00;;;8.20;;
4290;SDS011;2159;50.906;7.152;2023-02-13T05:31:43;11.57;;;8.00;;
4290;SDS011;2159;50.906;7.152;2023-02-13T05:34:11;14.07;;;8.83;;
4290;SDS011;2159;50.906;7.152;2023-02-13T05:36:39;11.17;;;8.33;;
4290;SDS011;2159;50.906;7.152;2023-02-13T05:39:06;12.03;;;8.40;;
4290;SDS011;2159;50.906;7.152;2023-02-13T05:41:34;12.57;;;8.43;;
4290;SDS011;2159;50.906;7.152;2023-02-13T05:44:01;12.70;;;8.70;;
4290;SDS011;2159;50.906;7.152;2023-02-13T05:46:30;12.87;;;8.27;;
4290;SDS011;2159;50.906;7.152;2023-02-13T05:48:58;11.87;;;8.20;;
4290;SDS011;2159;50.906;7.152;2023-02-13T05:51:28;12.00;;;8.10;;
4290;SDS011;2159;50.906;7.152;2023-02-13T05:53:55;13.47;;;8.20;;
4290;SDS011;2159;50.906;7.152;2023-02-13T05:56:23;12.10;;;8.10;;
4290;SDS011;2159;50.906;7.152;2023-02-13T05:58:50;13.00;;;8.80;;
4290;SDS011;2159;50.906;7.152;2023-02-13T06:01:18;11.20;;;7.87;;
4290;SDS011;2159;50.906;7.152;2023-02-13T06:03:47;13.50;;;8.83;;
4290;SDS011;2159;50.906;7.152;2023-02-13T06:06:14;11.73;;;8.53;;
4290;SDS011;2159;50.906;7.152;2023-02-13T06:08:42;11.20;;;8.70;;
4290;SDS011;2159;50.906;7.152;2023-02-13T06:11:10;12.40;;;8.20;;
4290;SDS011;2159;50.906;7.152;2023-02-13T06:13:37;11.57;;;8.60;;
4290;SDS011;2159;50.906;7.152;2023-02-13T06:16:06;11.53;;;8.13;;
4290;SDS011;2159;50.906;7.152;2023-02-13T06:18:34;11.63;;;8.30;;
4290;SDS011;2159;50.906;7.152;2023-02-13T06:21:03;13.80;;;8.63;;
4290;SDS011;2159;50.906;7.152;2023-02-13T06:23:31;12.37;;;8.70;;
4290;SDS011;2159;50.906;7.152;2023-02-13T06:26:00;11.70;;;8.37;;
4290;SDS011;2159;50.906;7.152;2023-02-13T06:28:28;12.43;;;8.93;;
4290;SDS011;2159;50.906;7.152;2023-02-13T06:30:55;16.10;;;10.37;;
4290;SDS011;2159;50.906;7.152;2023-02-13T06:33:23;13.53;;;9.13;;
4290;SDS011;2159;50.906;7.152;2023-02-13T06:35:50;13.37;;;8.80;;
4290;SDS011;2159;50.906;7.152;2023-02-13T06:38:19;13.40;;;8.80;;
4290;SDS011;2159;50.906;7.152;2023-02-13T06:40:47;14.77;;;10.17;;
4290;SDS011;2159;50.906;7.152;2023-02-13T06:43:15;13.47;;;9.07;;
4290;SDS011;2159;50.906;7.152;2023-02-13T06:45:43;13.70;;;9.33;;
4290;SDS011;2159;50.906;7.152;2023-02-13T06:48:12;13.73;;;9.57;;
4290;SDS011;2159;50.906;7.152;2023-02-13T06:50:39;14.40;;;9.47;;
4290;SDS011;2159;50.906;7.152;2023-02-13T06:53:07;14.13;;;9.40;;
4290;SDS011;2159;50.906;7.152;2023-02-13T06:55:36;12.70;;;9.13;;
4290;SDS011;2159;50.906;7.152;2023-02-13T06:58:04;13.40;;;9.03;;
4290;SDS011;2159;50.906;7.152;2023-02-13T07:00:32;16.13;;;9.00;;
4290;SDS011;2159;50.906;7.152;2023-02-13T07:03:00;14.57;;;9.90;;
4290;SDS011;2159;50.906;7.152;2023-02-13T07:05:28;13.87;;;9.07;;
4290;SDS011;2159;50.906;7.152;2023-02-13T07:07:55;11.83;;;8.90;;
4290;SDS011;2159;50.906;7.152;2023-02-13T07:10:23;15.83;;;9.70;;
4290;SDS011;2159;50.906;7.152;2023-02-13T07:12:52;14.90;;;9.93;;
4290;SDS011;2159;50.906;7.152;2023-02-13T07:15:31;14.10;;;9.80;;
4290;SDS011;2159;50.906;7.152;2023-02-13T07:17:58;16.60;;;9.70;;
4290;SDS011;2159;50.906;7.152;2023-02-13T07:20:26;14.67;;;9.80;;
4290;SDS011;2159;50.906;7.152;2023-02-13T07:22:56;15.90;;;9.10;;
4290;SDS011;2159;50.906;7.152;2023-02-13T07:25:23;15.77;;;9.67;;
4290;SDS011;2159;50.906;7.152;2023-02-13T07:27:52;18.10;;;10.10;;
4290;SDS011;2159;50.906;7.152;2023-02-13T07:30:20;14.60;;;9.40;;
4290;SDS011;2159;50.906;7.152;2023-02-13T07:32:47;13.87;;;9.27;;
4290;SDS011;2159;50.906;7.152;2023-02-13T07:35:16;14.47;;;9.23;;
4290;SDS011;2159;50.906;7.152;2023-02-13T07:37:43;15.93;;;9.47;;
4290;SDS011;2159;50.906;7.152;2023-02-13T07:40:11;14.13;;;9.27;;
4290;SDS011;2159;50.906;7.152;2023-02-13T07:42:38;14.00;;;9.17;;
4290;SDS011;2159;50.906;7.152;2023-02-13T07:45:08;14.10;;;9.10;;
4290;SDS011;2159;50.906;7.152;2023-02-13T07:47:37;13.13;;;8.67;;
4290;SDS011;2159;50.906;7.152;2023-02-13T07:50:05;14.87;;;9.63;;
4290;SDS011;2159;50.906;7.152;2023-02-13T07:52:32;14.77;;;9.20;;
4290;SDS011;2159;50.906;7.152;2023-02-13T07:55:02;13.43;;;9.00;;
4290;SDS011;2159;50.906;7.152;2023-02-13T07:57:29;12.80;;;8.60;;
4290;SDS011;2159;50.906;7.152;2023-02-13T07:59:57;15.07;;;9.47;;
4290;SDS011;2159;50.906;7.152;2023-02-13T08:02:26;13.93;;;9.40;;
4290;SDS011;2159;50.906;7.152;2023-02-13T08:04:53;15.37;;;8.90;;
4290;SDS011;2159;50.906;7.152;2023-02-13T08:07:21;14.10;;;9.23;;
4290;SDS011;2159;50.906;7.152;2023-02-13T08:09:48;12.83;;;8.27;;
4290;SDS011;2159;50.906;7.152;2023-02-13T08:12:48;12.73;;;8.33;;
4290;SDS011;2159;50.906;7.152;2023-02-13T08:15:16;12.70;;;8.07;;
4290;SDS011;2159;50.906;7.152;2023-02-13T08:17:44;11.67;;;8.40;;
4290;SDS011;2159;50.906;7.152;2023-02-13T08:20:12;12.67;;;8.40;;
4290;SDS011;2159;50.906;7.152;2023-02-13T08:22:39;11.07;;;8.17;;
4290;SDS011;2159;50.906;7.152;2023-02-13T08:25:07;13.20;;;8.50;;
4290;SDS011;2159;50.906;7.152;2023-02-13T08:27:34;11.60;;;7.90;;
4290;SDS011;2159;50.906;7.152;2023-02-13T08:30:02;13.33;;;8.53;;
4290;SDS011;2159;50.906;7.152;2023-02-13T08:32:30;13.17;;;8.37;;
4290;SDS011;2159;50.906;7.152;2023-02-13T08:35:14;11.40;;;7.67;;
4290;SDS011;2159;50.906;7.152;2023-02-13T08:37:42;11.87;;;8.00;;
4290;SDS011;2159;50.906;7.152;2023-02-13T08:40:12;13.43;;;7.90;;
4290;SDS011;2159;50.906;7.152;2023-02-13T08:42:40;11.07;;;7.90;;
4290;SDS011;2159;50.906;7.152;2023-02-13T08:45:08;13.50;;;8.10;;
4290;SDS011;2159;50.906;7.152;2023-02-13T08:47:37;11.10;;;7.70;;
4290;SDS011;2159;50.906;7.152;2023-02-13T08:50:05;12.10;;;8.27;;
4290;SDS011;2159;50.906;7.152;2023-02-13T08:52:34;14.17;;;8.23;;
4290;SDS011;2159;50.906;7.152;2023-02-13T08:55:02;12.27;;;7.87;;
4290;SDS011;2159;50.906;7.152;2023-02-13T08:57:29;10.10;;;7.57;;
4290;SDS011;2159;50.906;7.152;2023-02-13T08:59:57;10.00;;;7.83;;
4290;SDS011;2159;50.906;7.152;2023-02-13T09:02:24;11.80;;;8.30;;
4290;SDS011;2159;50.906;7.152;2023-02-13T09:04:52;11.33;;;7.50;;
4290;SDS011;2159;50.906;7.152;2023-02-13T09:07:19;10.50;;;7.23;;
4290;SDS011;2159;50.906;7.152;2023-02-13T09:09:48;11.97;;;8.27;;
4290;SDS011;2159;50.906;7.152;2023-02-13T09:12:16;11.20;;;7.53;;
4290;SDS011;2159;50.906;7.152;2023-02-13T09:14:43;9.93;;;7.40;;
4290;SDS011;2159;50.906;7.152;2023-02-13T09:17:11;11.67;;;7.77;;
4290;SDS011;2159;50.906;7.152;2023-02-13T09:19:39;10.23;;;7.30;;
4290;SDS011;2159;50.906;7.152;2023-02-13T09:22:07;10.60;;;7.50;;
4290;SDS011;2159;50.906;7.152;2023-02-13T09:24:34;10.80;;;7.20;;
4290;SDS011;2159;50.906;7.152;2023-02-13T09:27:04;11.77;;;7.47;;
4290;SDS011;2159;50.906;7.152;2023-02-13T09:29:33;11.07;;;8.10;;
4290;SDS011;2159;50.906;7.152;2023-02-13T09:32:00;10.87;;;7.40;;
4290;SDS011;2159;50.906;7.152;2023-02-13T09:34:28;11.20;;;7.90;;
4290;SDS011;2159;50.906;7.152;2023-02-13T09:36:55;11.20;;;7.57;;
4290;SDS011;2159;50.906;7.152;2023-02-13T09:39:23;10.47;;;7.63;;
4290;SDS011;2159;50.906;7.152;2023-02-13T09:41:51;11.47;;;7.43;;
4290;SDS011;2159;50.906;7.152;2023-02-13T09:44:22;11.00;;;7.37;;
4290;SDS011;2159;50.906;7.152;2023-02-13T09:47:03;10.40;;;7.30;;
4290;SDS011;2159;50.906;7.152;2023-02-13T09:49:34;8.63;;;6.93;;
4290;SDS011;2159;50.906;7.152;2023-02-13T09:52:03;10.00;;;7.43;;
4290;SDS011;2159;50.906;7.152;2023-02-13T09:54:31;9.90;;;6.83;;
4290;SDS011;2159;50.906;7.152;2023-02-13T09:56:59;13.50;;;7.10;;
4290;SDS011;2159;50.906;7.152;2023-02-13T09:59:38;9.80;;;6.63;;
4290;SDS011;2159;50.906;7.152;2023-02-13T10:02:13;10.37;;;7.00;;
4290;SDS011;2159;50.906;7.152;2023-02-13T10:04:47;8.70;;;6.53;;
4290;SDS011;2159;50.906;7.152;2023-02-13T10:07:17;9.10;;;6.60;;
4290;SDS011;2159;50.906;7.152;2023-02-13T10:09:48;8.73;;;6.70;;
4290;SDS011;2159;50.906;7.152;2023-02-13T10:12:25;10.60;;;6.67;;
4290;SDS011;2159;50.906;7.152;2023-02-13T10:14:59;9.17;;;6.63;;
4290;SDS011;2159;50.906;7.152;2023-02-13T10:17:31;6.70;;;5.13;;
4290;SDS011;2159;50.906;7.152;2023-02-13T10:20:00;8.50;;;6.10;;
4290;SDS011;2159;50.906;7.152;2023-02-13T10:22:29;6.70;;;5.40;;
4290;SDS011;2159;50.906;7.152;2023-02-13T10:24:59;8.13;;;6.00;;
4290;SDS011;2159;50.906;7.152;2023-02-13T10:27:28;6.87;;;5.43;;
4290;SDS011;2159;50.906;7.152;2023-02-13T10:30:01;6.07;;;5.40;;
4290;SDS011;2159;50.906;7.152;2023-02-13T10:32:35;7.90;;;6.40;;
4290;SDS011;2159;50.906;7.152;2023-02-13T10:35:04;8.30;;;7.03;;
4290;SDS011;2159;50.906;7.152;2023-02-13T10:37:42;7.53;;;5.53;;
4290;SDS011;2159;50.906;7.152;2023-02-13T10:40:10;8.57;;;6.03;;
4290;SDS011;2159;50.906;7.152;2023-02-13T10:42:39;8.43;;;5.80;;
4290;SDS011;2159;50.906;7.152;2023-02-13T10:45:17;8.10;;;6.20;;
4290;SDS011;2159;50.906;7.152;2023-02-13T10:47:51;8.10;;;6.20;;
4290;SDS011;2159;50.906;7.152;2023-02-13T10:50:21;9.90;;;6.83;;
4290;SDS011;2159;50.906;7.152;2023-02-13T10:52:51;8.10;;;6.33;;
4290;SDS011;2159;50.906;7.152;2023-02-13T10:55:43;11.33;;;6.00;;
4290;SDS011;2159;50.906;7.152;2023-02-13T10:58:14;8.47;;;5.97;;
4290;SDS011;2159;50.906;7.152;2023-02-13T11:00:46;7.30;;;5.93;;
4290;SDS011;2159;50.906;7.152;2023-02-13T11:03:16;8.20;;;6.27;;
4290;SDS011;2159;50.906;7.152;2023-02-13T11:05:44;9.07;;;6.97;;
4290;SDS011;2159;50.906;7.152;2023-02-13T11:08:14;9.97;;;6.80;;
4290;SDS011;2159;50.906;7.152;2023-02-13T11:10:43;10.50;;;5.90;;
4290;SDS011;2159;50.906;7.152;2023-02-13T11:13:14;8.17;;;5.70;;
4290;SDS011;2159;50.906;7.152;2023-02-13T11:15:42;8.50;;;6.47;;
4290;SDS011;2159;50.906;7.152;2023-02-13T11:18:25;9.50;;;5.87;;
4290;SDS011;2159;50.906;7.152;2023-02-13T11:21:04;7.60;;;6.37;;
4290;SDS011;2159;50.906;7.152;2023-02-13T11:23:36;11.10;;;6.10;;
4290;SDS011;2159;50.906;7.152;2023-02-13T11:26:04;7.10;;;5.83;;
4290;SDS011;2159;50.906;7.152;2023-02-13T11:28:34;8.93;;;6.37;;
4290;SDS011;2159;50.906;7.152;2023-02-13T11:31:09;8.07;;;5.97;;
4290;SDS011;2159;50.906;7.152;2023-02-13T11:33:39;6.60;;;5.67;;
4290;SDS011;2159;50.906;7.152;2023-02-13T11:36:07;7.53;;;5.60;;
4290;SDS011;2159;50.906;7.152;2023-02-13T11:38:34;6.87;;;5.80;;
4290;SDS011;2159;50.906;7.152;2023-02-13T11:41:04;9.00;;;6.10;;
4290;SDS011;2159;50.906;7.152;2023-02-13T11:43:33;9.10;;;6.23;;
4290;SDS011;2159;50.906;7.152;2023-02-13T11:46:02;8.00;;;5.40;;
4290;SDS011;2159;50.906;7.152;2023-02-13T11:48:30;7.07;;;5.97;;
4290;SDS011;2159;50.906;7.152;2023-02-13T11:50:59;6.70;;;5.30;;
4290;SDS011;2159;50.906;7.152;2023-02-13T11:53:28;8.07;;;5.47;;
4290;SDS011;2159;50.906;7.152;2023-02-13T11:56:00;6.10;;;5.50;;
4290;SDS011;2159;50.906;7.152;2023-02-13T11:58:28;6.23;;;5.27;;
4290;SDS011;2159;50.906;7.152;2023-02-13T12:01:07;6.83;;;4.83;;
4290;SDS011;2159;50.906;7.152;2023-02-13T12:03:35;5.33;;;4.83;;
4290;SDS011;2159;50.906;7.152;2023-02-13T12:06:06;6.00;;;4.97;;
4290;SDS011;2159;50.906;7.152;2023-02-13T12:08:38;5.70;;;4.80;;
4290;SDS011;2159;50.906;7.152;2023-02-13T12:11:09;9.40;;;5.40;;
4290;SDS011;2159;50.906;7.152;2023-02-13T12:13:40;6.73;;;5.30;;
4290;SDS011;2159;50.906;7.152;2023-02-13T12:16:09;5.43;;;4.70;;
4290;SDS011;2159;50.906;7.152;2023-02-13T12:18:39;5.67;;;4.57;;
4290;SDS011;2159;50.906;7.152;2023-02-13T12:21:12;5.90;;;5.00;;
4290;SDS011;2159;50.906;7.152;2023-02-13T12:23:45;5.87;;;4.83;;
4290;SDS011;2159;50.906;7.152;2023-02-13T12:26:20;6.63;;;4.93;;
4290;SDS011;2159;50.906;7.152;2023-02-13T12:28:57;5.23;;;4.60;;
4290;SDS011;2159;50.906;7.152;2023-02-13T12:31:29;8.53;;;4.20;;
4290;SDS011;2159;50.906;7.152;2023-02-13T12:34:08;4.80;;;3.83;;
4290;SDS011;2159;50.906;7.152;2023-02-13T12:36:44;4.67;;;4.17;;
4290;SDS011;2159;50.906;7.152;2023-02-13T12:39:17;5.70;;;4.30;;
4290;SDS011;2159;50.906;7.152;2023-02-13T12:41:48;4.93;;;4.27;;
4290;SDS011;2159;50.906;7.152;2023-02-13T12:44:26;4.97;;;3.90;;
4290;SDS011;2159;50.906;7.152;2023-02-13T12:47:00;3.80;;;3.50;;
4290;SDS011;2159;50.906;7.152;2023-02-13T12:49:39;4.30;;;3.63;;
4290;SDS011;2159;50.906;7.152;2023-02-13T12:52:17;6.37;;;3.57;;
4290;SDS011;2159;50.906;7.152;2023-02-13T12:54:53;6.17;;;4.40;;
4290;SDS011;2159;50.906;7.152;2023-02-13T12:57:30;4.60;;;4.10;;
4290;SDS011;2159;50.906;7.152;2023-02-13T13:00:09;4.70;;;4.10;;
4290;SDS011;2159;50.906;7.152;2023-02-13T13:02:44;3.67;;;3.37;;
4290;SDS011;2159;50.906;7.152;2023-02-13T13:05:17;7.30;;;3.60;;
4290;SDS011;2159;50.906;7.152;2023-02-13T13:07:50;3.93;;;3.63;;
4290;SDS011;2159;50.906;7.152;2023-02-13T13:10:23;4.37;;;3.70;;
4290;SDS011;2159;50.906;7.152;2023-02-13T13:12:56;5.07;;;3.47;;
4290;SDS011;2159;50.906;7.152;2023-02-13T13:15:29;3.97;;;3.57;;
4290;SDS011;2159;50.906;7.152;2023-02-13T13:18:02;4.30;;;3.90;;
4290;SDS011;2159;50.906;7.152;2023-02-13T13:20:40;3.33;;;3.03;;
4290;SDS011;2159;50.906;7.152;2023-02-13T13:23:12;3.50;;;3.20;;
4290;SDS011;2159;50.906;7.152;2023-02-13T13:25:44;3.30;;;3.10;;
4290;SDS011;2159;50.906;7.152;2023-02-13T13:28:13;4.83;;;3.30;;
4290;SDS011;2159;50.906;7.152;2023-02-13T13:30:41;3.40;;;3.10;;
4290;SDS011;2159;50.906;7.152;2023-02-13T13:33:10;3.10;;;2.90;;
4290;SDS011;2159;50.906;7.152;2023-02-13T13:35:40;3.83;;;3.47;;
4290;SDS011;2159;50.906;7.152;2023-02-13T13:38:11;3.43;;;3.13;;
4290;SDS011;2159;50.906;7.152;2023-02-13T13:40:44;3.20;;;2.90;;
4290;SDS011;2159;50.906;7.152;2023-02-13T13:43:18;4.00;;;3.60;;
4290;SDS011;2159;50.906;7.152;2023-02-13T13:45:47;4.20;;;3.80;;
4290;SDS011;2159;50.906;7.152;2023-02-13T13:48:32;4.47;;;3.47;;
4290;SDS011;2159;50.906;7.152;2023-02-13T13:51:01;4.67;;;3.13;;
4290;SDS011;2159;50.906;7.152;2023-02-13T13:53:30;3.77;;;3.17;;
4290;SDS011;2159;50.906;7.152;2023-02-13T13:56:04;4.63;;;3.00;;
4290;SDS011;2159;50.906;7.152;2023-02-13T13:58:35;2.73;;;2.53;;
4290;SDS011;2159;50.906;7.152;2023-02-13T14:01:20;3.13;;;2.83;;
4290;SDS011;2159;50.906;7.152;2023-02-13T14:03:49;3.40;;;3.10;;
4290;SDS011;2159;50.906;7.152;2023-02-13T14:06:18;3.50;;;2.90;;
4290;SDS011;2159;50.906;7.152;2023-02-13T14:11:42;2.67;;;2.57;;
4290;SDS011;2159;50.906;7.152;2023-02-13T14:16:58;2.57;;;2.37;;
4290;SDS011;2159;50.906;7.152;2023-02-13T14:19:28;3.47;;;3.17;;
4290;SDS011;2159;50.906;7.152;2023-02-13T14:24:38;2.90;;;2.60;;
4290;SDS011;2159;50.906;7.152;2023-02-13T14:27:14;3.53;;;3.07;;
4290;SDS011;2159;50.906;7.152;2023-02-13T14:29:46;2.93;;;2.63;;
4290;SDS011;2159;50.906;7.152;2023-02-13T14:32:15;3.17;;;2.87;;
4290;SDS011;2159;50.906;7.152;2023-02-13T14:34:49;3.40;;;3.10;;
4290;SDS011;2159;50.906;7.152;2023-02-13T14:37:19;3.10;;;2.80;;
4290;SDS011;2159;50.906;7.152;2023-02-13T14:42:55;2.70;;;2.50;;
4290;SDS011;2159;50.906;7.152;2023-02-13T14:45:24;3.40;;;2.73;;
4290;SDS011;2159;50.906;7.152;2023-02-13T14:47:54;4.40;;;2.40;;
4290;SDS011;2159;50.906;7.152;2023-02-13T14:50:24;2.50;;;2.13;;
4290;SDS011;2159;50.906;7.152;2023-02-13T14:52:52;3.23;;;1.80;;
4290;SDS011;2159;50.906;7.152;2023-02-13T14:55:23;2.30;;;1.57;;
4290;SDS011;2159;50.906;7.152;2023-02-13T14:57:56;1.90;;;1.80;;
4290;SDS011;2159;50.906;7.152;2023-02-13T15:00:26;2.10;;;2.00;;
4290;SDS011;2159;50.906;7.152;2023-02-13T15:02:55;2.20;;;2.10;;
4290;SDS011;2159;50.906;7.152;2023-02-13T15:05:25;3.17;;;2.17;;
4290;SDS011;2159;50.906;7.152;2023-02-13T15:07:56;2.90;;;2.70;;
4290;SDS011;2159;50.906;7.152;2023-02-13T15:10:28;2.57;;;2.40;;
4290;SDS011;2159;50.906;7.152;2023-02-13T15:13:00;2.70;;;2.53;;
4290;SDS011;2159;50.906;7.152;2023-02-13T15:15:29;3.90;;;2.83;;
4290;SDS011;2159;50.906;7.152;2023-02-13T15:17:58;5.93;;;2.70;;
4290;SDS011;2159;50.906;7.152;2023-02-13T15:20:27;2.70;;;2.50;;
4290;SDS011;2159;50.906;7.152;2023-02-13T15:22:56;5.07;;;2.33;;
4290;SDS011;2159;50.906;7.152;2023-02-13T15:25:24;2.40;;;2.20;;
4290;SDS011;2159;50.906;7.152;2023-02-13T15:27:55;2.77;;;2.57;;
4290;SDS011;2159;50.906;7.152;2023-02-13T15:30:26;4.63;;;2.23;;
4290;SDS011;2159;50.906;7.152;2023-02-13T15:32:54;2.57;;;2.37;;
4290;SDS011;2159;50.906;7.152;2023-02-13T15:35:22;2.50;;;1.97;;
4290;SDS011;2159;50.906;7.152;2023-02-13T15:37:50;2.40;;;2.30;;
4290;SDS011;2159;50.906;7.152;2023-02-13T15:40:25;2.40;;;2.30;;
4290;SDS011;2159;50.906;7.152;2023-02-13T15:42:52;2.53;;;2.33;;
4290;SDS011;2159;50.906;7.152;2023-02-13T15:45:21;2.40;;;2.20;;